Time;durP1;ratioP1;P1;durP2;ratioP2;P2;SDS_P1;SDS_P2;PMS_P1;PMS_P2;Temp;Humidity;BMP_temperature;BMP_pressure;BME280_temperature;BME280_humidity;BME280_pressure;Samples;Min_cycle;Max_cycle;Signal;HPM_P1;HPM_P2
2022/12/24 00:04:24;;;;;;;1.73;1.30;;;;;;;;;;10249136;28;20199;-62
2022/12/24 00:09:24;;;;;;;4.70;1.10;;;;;;;;;;10249656;28;20222;-63
2022/12/24 00:14:24;;;;;;;3.90;1.10;;;;;;;;;;10249215;28;20745;-64
2022/12/24 00:19:25;;;;;;;3.10;1.13;;;;;;;;;;10249081;28;20207;-63
2022/12/24 00:24:25;;;;;;;4.80;1.20;;;;;;;;;;10249051;28;20195;-64
2022/12/24 00:29:25;;;;;;;8.07;1.40;;;;;;;;;;10248129;28;20479;-64
2022/12/24 00:34:25;;;;;;;3.40;1.40;;;;;;;;;;10380572;22;20249;-60
2022/12/24 00:39:26;;;;;;;5.10;1.50;;;;;;;;;;10369343;28;20181;-61
2022/12/24 00:44:26;;;;;;;3.07;1.37;;;;;;;;;;10368423;28;20459;-60
2022/12/24 00:49:26;;;;;;;6.57;1.60;;;;;;;;;;10366789;28;20197;-61
2022/12/24 00:54:26;;;;;;;4.83;1.53;;;;;;;;;;10367126;28;20235;-61
2022/12/24 00:59:26;;;;;;;4.50;1.67;;;;;;;;;;10368391;28;20203;-60
2022/12/24 01:09:45;;;;;;;5.77;1.87;;;;;;;;;;10366407;28;20197;-62
2022/12/24 01:14:45;;;;;;;6.97;2.17;;;;;;;;;;10366521;28;20217;-61
2022/12/24 01:19:46;;;;;;;5.87;1.73;;;;;;;;;;10366785;28;20177;-60
2022/12/24 01:24:46;;;;;;;4.37;1.40;;;;;;;;;;10366036;28;20219;-61
2022/12/24 01:29:46;;;;;;;8.10;1.63;;;;;;;;;;10367048;28;20197;-59
2022/12/24 01:34:46;;;;;;;12.13;2.20;;;;;;;;;;10365751;28;20259;-60
2022/12/24 01:39:46;;;;;;;6.80;1.90;;;;;;;;;;10366791;28;20225;-58
2022/12/24 01:44:47;;;;;;;5.10;1.80;;;;;;;;;;10365904;28;20205;-59
2022/12/24 01:49:52;;;;;;;4.30;1.77;;;;;;;;;;10364473;28;20652;-59
2022/12/24 01:54:55;;;;;;;3.30;1.70;;;;;;;;;;10365725;28;20695;-59
2022/12/24 01:59:57;;;;;;;5.80;1.67;;;;;;;;;;10364141;28;20185;-61
2022/12/24 02:05:13;;;;;;;5.93;1.47;;;;;;;;;;10362658;28;20209;-62
2022/12/24 02:10:14;;;;;;;7.20;1.90;;;;;;;;;;10365569;28;20193;-61
2022/12/24 02:15:16;;;;;;;4.10;1.27;;;;;;;;;;10363849;28;20228;-61
2022/12/24 02:20:35;;;;;;;5.03;1.43;;;;;;;;;;10363395;28;20486;-61
2022/12/24 02:25:54;;;;;;;5.77;1.60;;;;;;;;;;10363933;28;20193;-59
2022/12/24 02:30:58;;;;;;;7.57;1.50;;;;;;;;;;10362351;28;20225;-61
2022/12/24 02:36:03;;;;;;;6.10;1.50;;;;;;;;;;10363765;28;20216;-62
2022/12/24 02:41:09;;;;;;;2.10;1.37;;;;;;;;;;10364980;28;20212;-60
2022/12/24 02:46:14;;;;;;;2.50;1.20;;;;;;;;;;10361810;28;20281;-61
2022/12/24 02:51:14;;;;;;;3.50;1.20;;;;;;;;;;10363178;28;20216;-59
2022/12/24 02:56:23;;;;;;;4.77;1.60;;;;;;;;;;10363995;28;20221;-58
2022/12/24 03:01:41;;;;;;;6.70;1.43;;;;;;;;;;10363937;28;20443;-61
2022/12/24 03:06:59;;;;;;;5.17;1.57;;;;;;;;;;10364134;28;20200;-61
2022/12/24 03:12:08;;;;;;;4.87;1.47;;;;;;;;;;10364387;28;20236;-61
2022/12/24 03:17:09;;;;;;;6.33;1.80;;;;;;;;;;10370485;28;20228;-59
2022/12/24 03:22:10;;;;;;;4.20;1.60;;;;;;;;;;10370929;28;20209;-60
2022/12/24 03:27:11;;;;;;;6.93;1.40;;;;;;;;;;10369119;28;20192;-61
2022/12/24 03:32:11;;;;;;;6.20;1.47;;;;;;;;;;10370661;28;20239;-62
2022/12/24 03:37:12;;;;;;;3.00;1.20;;;;;;;;;;10370782;28;20229;-61
2022/12/24 03:42:12;;;;;;;5.53;1.43;;;;;;;;;;10368397;28;20209;-59
2022/12/24 03:47:12;;;;;;;4.43;1.80;;;;;;;;;;10370197;28;20569;-60
2022/12/24 03:52:12;;;;;;;5.23;1.63;;;;;;;;;;10369512;28;20208;-61
2022/12/24 03:57:12;;;;;;;3.57;1.33;;;;;;;;;;10367720;28;20221;-60
2022/12/24 04:02:12;;;;;;;8.13;2.03;;;;;;;;;;10368842;28;20561;-62
2022/12/24 04:07:13;;;;;;;6.50;1.60;;;;;;;;;;10362989;28;20538;-61
2022/12/24 04:12:13;;;;;;;9.30;1.87;;;;;;;;;;10358089;28;20692;-61
2022/12/24 04:17:13;;;;;;;8.40;1.67;;;;;;;;;;10357211;28;20243;-60
2022/12/24 04:22:13;;;;;;;8.00;1.40;;;;;;;;;;10359190;28;21063;-56
2022/12/24 04:27:14;;;;;;;5.50;1.97;;;;;;;;;;10358944;28;20197;-61
2022/12/24 04:32:14;;;;;;;9.33;1.77;;;;;;;;;;10359869;28;20332;-60
2022/12/24 04:37:14;;;;;;;10.80;1.70;;;;;;;;;;10359279;28;20665;-60
2022/12/24 04:42:14;;;;;;;8.63;2.23;;;;;;;;;;10360164;28;20293;-62
2022/12/24 04:47:14;;;;;;;5.20;2.20;;;;;;;;;;10360153;28;20189;-62
2022/12/24 04:52:14;;;;;;;9.03;2.27;;;;;;;;;;10360838;28;20316;-60
2022/12/24 04:57:15;;;;;;;6.73;1.87;;;;;;;;;;10360786;28;20225;-62
2022/12/24 05:02:15;;;;;;;10.80;1.87;;;;;;;;;;10362501;28;20205;-61
2022/12/24 05:07:15;;;;;;;9.33;1.57;;;;;;;;;;10367676;28;20197;-61
2022/12/24 05:12:15;;;;;;;11.43;1.97;;;;;;;;;;10366170;28;20555;-61
2022/12/24 05:17:15;;;;;;;7.87;2.47;;;;;;;;;;10366815;28;20232;-60
2022/12/24 05:27:35;;;;;;;7.27;2.23;;;;;;;;;;10367123;28;20276;-62
2022/12/24 05:32:35;;;;;;;9.27;2.07;;;;;;;;;;10367392;28;20659;-62
2022/12/24 05:37:35;;;;;;;12.67;2.00;;;;;;;;;;10366431;28;20208;-62
2022/12/24 05:42:35;;;;;;;8.00;2.20;;;;;;;;;;10365926;28;20767;-62
2022/12/24 05:47:35;;;;;;;8.73;1.83;;;;;;;;;;10365423;28;20211;-62
2022/12/24 05:52:35;;;;;;;13.53;2.10;;;;;;;;;;10363020;28;20213;-62
2022/12/24 05:57:37;;;;;;;6.13;2.10;;;;;;;;;;10363263;28;20725;-61
2022/12/24 06:02:37;;;;;;;8.10;1.93;;;;;;;;;;10366408;28;20229;-61
2022/12/24 06:07:38;;;;;;;11.20;2.30;;;;;;;;;;10364576;28;20738;-63
2022/12/24 06:12:38;;;;;;;8.67;1.80;;;;;;;;;;10366154;28;20209;-63
2022/12/24 06:17:38;;;;;;;11.23;2.40;;;;;;;;;;10365634;28;20212;-62
2022/12/24 06:22:41;;;;;;;6.70;2.37;;;;;;;;;;10365519;28;20213;-63
2022/12/24 06:27:41;;;;;;;12.07;2.23;;;;;;;;;;10365056;28;20245;-61
2022/12/24 06:32:42;;;;;;;8.10;1.73;;;;;;;;;;10397376;22;20276;-64
2022/12/24 06:37:42;;;;;;;8.77;1.67;;;;;;;;;;10364884;28;20268;-63
2022/12/24 06:42:43;;;;;;;10.77;2.10;;;;;;;;;;10365495;28;20823;-61
2022/12/24 06:47:43;;;;;;;10.43;2.20;;;;;;;;;;10366188;28;20432;-63
2022/12/24 06:52:43;;;;;;;6.00;1.60;;;;;;;;;;10372518;28;20296;-64
2022/12/24 06:57:43;;;;;;;5.50;1.90;;;;;;;;;;10372898;28;20428;-63
2022/12/24 07:02:43;;;;;;;11.30;2.50;;;;;;;;;;10372754;28;20774;-63
2022/12/24 07:07:44;;;;;;;10.03;2.47;;;;;;;;;;10373078;28;20190;-63
2022/12/24 07:12:44;;;;;;;8.33;2.10;;;;;;;;;;10373059;28;20197;-63
2022/12/24 07:17:44;;;;;;;12.03;2.00;;;;;;;;;;10372823;28;20784;-62
2022/12/24 07:22:44;;;;;;;8.27;2.00;;;;;;;;;;10380766;28;20204;-61
2022/12/24 07:27:44;;;;;;;7.33;2.50;;;;;;;;;;10391986;28;20184;-63
2022/12/24 07:32:44;;;;;;;5.20;2.17;;;;;;;;;;10377215;28;20228;-62
2022/12/24 07:37:45;;;;;;;8.77;2.27;;;;;;;;;;10368626;28;20192;-61
2022/12/24 07:42:45;;;;;;;13.17;2.13;;;;;;;;;;10372332;28;20907;-64
2022/12/24 07:47:45;;;;;;;8.93;2.27;;;;;;;;;;10372443;28;20242;-62
2022/12/24 07:52:45;;;;;;;8.93;2.17;;;;;;;;;;10371041;28;20197;-62
2022/12/24 07:57:45;;;;;;;5.87;1.50;;;;;;;;;;10354742;28;20201;-63
2022/12/24 08:02:45;;;;;;;6.13;1.77;;;;;;;;;;10366272;28;20643;-63
2022/12/24 08:07:46;;;;;;;6.23;1.70;;;;;;;;;;10366907;28;20192;-62
2022/12/24 08:12:47;;;;;;;10.13;1.80;;;;;;;;;;10365814;28;20198;-63
2022/12/24 08:17:47;;;;;;;9.97;1.70;;;;;;;;;;10367502;28;20186;-60
2022/12/24 08:22:47;;;;;;;8.00;2.10;;;;;;;;;;10365409;28;20213;-64
2022/12/24 08:27:47;;;;;;;9.00;2.10;;;;;;;;;;10366486;28;20781;-64
2022/12/24 08:32:48;;;;;;;14.67;2.50;;;;;;;;;;10366973;28;20237;-62
2022/12/24 08:37:48;;;;;;;9.60;2.37;;;;;;;;;;10350075;28;20232;-64
2022/12/24 08:42:48;;;;;;;6.10;2.00;;;;;;;;;;10329282;28;20217;-62
2022/12/24 08:47:48;;;;;;;6.63;1.77;;;;;;;;;;10361389;28;20182;-65
2022/12/24 08:52:48;;;;;;;13.50;2.67;;;;;;;;;;10359680;28;20383;-60
2022/12/24 08:57:48;;;;;;;10.47;2.00;;;;;;;;;;10359627;28;20194;-63
2022/12/24 09:02:49;;;;;;;11.20;2.30;;;;;;;;;;10361241;28;20205;-63
2022/12/24 09:07:49;;;;;;;8.27;1.83;;;;;;;;;;10359945;28;20189;-61
2022/12/24 09:12:50;;;;;;;16.50;2.13;;;;;;;;;;10354874;28;20212;-63
2022/12/24 09:17:50;;;;;;;9.60;2.17;;;;;;;;;;10358979;28;20276;-66
2022/12/24 09:22:50;;;;;;;13.50;2.50;;;;;;;;;;10354640;28;20207;-64
2022/12/24 09:27:50;;;;;;;13.20;2.67;;;;;;;;;;10346265;28;20228;-66
2022/12/24 09:32:51;;;;;;;7.60;2.13;;;;;;;;;;10354205;28;20233;-66
2022/12/24 09:38:01;;;;;;;14.97;2.57;;;;;;;;;;10355586;28;20655;-61
2022/12/24 09:43:05;;;;;;;12.60;2.27;;;;;;;;;;10318431;28;20297;-64
2022/12/24 09:48:11;;;;;;;13.33;2.67;;;;;;;;;;10317806;28;20401;-67
2022/12/24 09:53:20;;;;;;;9.40;2.07;;;;;;;;;;10317568;28;20771;-60
2022/12/24 09:58:38;;;;;;;13.70;2.50;;;;;;;;;;10337572;28;20201;-62
2022/12/24 10:03:38;;;;;;;9.60;2.60;;;;;;;;;;10356781;28;20217;-61
2022/12/24 10:08:48;;;;;;;14.73;2.60;;;;;;;;;;10357378;28;20679;-63
2022/12/24 10:14:02;;;;;;;13.13;2.90;;;;;;;;;;10345554;28;20240;-63
2022/12/24 10:19:15;;;;;;;16.03;2.70;;;;;;;;;;10349111;28;20189;-64
2022/12/24 10:24:23;;;;;;;13.03;2.33;;;;;;;;;;10362274;28;20228;-63
2022/12/24 10:29:26;;;;;;;11.23;2.30;;;;;;;;;;10363225;28;20259;-64
2022/12/24 10:34:29;;;;;;;13.10;3.27;;;;;;;;;;10363422;28;20237;-63
2022/12/24 10:39:29;;;;;;;10.33;2.33;;;;;;;;;;10366086;28;20244;-62
2022/12/24 10:44:31;;;;;;;10.67;2.23;;;;;;;;;;10363993;28;20279;-63
2022/12/24 10:49:51;;;;;;;6.47;2.00;;;;;;;;;;10364008;28;20189;-62
2022/12/24 10:55:04;;;;;;;15.80;4.63;;;;;;;;;;10363225;28;20481;-58
2022/12/24 11:00:06;;;;;;;12.80;4.07;;;;;;;;;;10367551;28;20250;-64
2022/12/24 11:05:25;;;;;;;8.77;2.17;;;;;;;;;;10384724;28;20205;-63
2022/12/24 11:10:25;;;;;;;11.13;2.63;;;;;;;;;;10370545;28;20663;-62
2022/12/24 11:15:29;;;;;;;17.47;5.60;;;;;;;;;;10369837;28;20228;-64
2022/12/24 11:20:30;;;;;;;12.23;3.20;;;;;;;;;;10368699;28;20223;-62
2022/12/24 11:25:32;;;;;;;10.23;2.33;;;;;;;;;;10369253;28;20212;-64
2022/12/24 11:30:32;;;;;;;2.70;1.43;;;;;;;;;;10372073;28;20189;-63
2022/12/24 11:35:38;;;;;;;9.67;2.00;;;;;;;;;;10370315;28;20236;-62
2022/12/24 11:40:42;;;;;;;12.13;1.90;;;;;;;;;;10371323;28;20184;-62
2022/12/24 11:45:53;;;;;;;5.93;1.43;;;;;;;;;;10370552;28;20662;-63
2022/12/24 11:50:58;;;;;;;10.13;2.40;;;;;;;;;;10375025;28;20186;-64
2022/12/24 11:55:59;;;;;;;7.63;1.83;;;;;;;;;;10399286;28;20567;-64
2022/12/24 12:01:13;;;;;;;3.90;1.50;;;;;;;;;;10411053;28;20181;-62
2022/12/24 12:06:25;;;;;;;5.33;2.10;;;;;;;;;;10411410;28;20236;-63
2022/12/24 12:11:26;;;;;;;7.73;2.00;;;;;;;;;;10410239;28;20207;-61
2022/12/24 12:16:59;;;;;;;8.83;2.50;;;;;;;;;;10411418;28;20227;-63
2022/12/24 12:21:50;;;;;;;7.43;3.17;;;;;;;;;;10410264;28;20216;-62
2022/12/24 12:26:59;;;;;;;8.40;2.73;;;;;;;;;;10409089;28;20205;-64
2022/12/24 12:32:09;;;;;;;6.10;1.70;;;;;;;;;;10408298;28;20711;-64
2022/12/24 12:37:35;;;;;;;14.23;8.33;;;;;;;;;;10407884;23;20253;-63
2022/12/24 12:42:37;;;;;;;5.40;1.73;;;;;;;;;;10364724;28;20664;-63
2022/12/24 12:48:00;;;;;;;6.20;2.30;;;;;;;;;;10366044;28;20221;-63
2022/12/24 12:53:06;;;;;;;10.00;3.33;;;;;;;;;;10365722;28;20256;-62
2022/12/24 12:58:11;;;;;;;3.13;1.67;;;;;;;;;;10366576;28;20202;-63
2022/12/24 13:03:31;;;;;;;7.37;1.93;;;;;;;;;;10367134;28;20208;-61
2022/12/24 13:08:49;;;;;;;4.83;1.57;;;;;;;;;;10365579;28;20212;-60
2022/12/24 13:13:55;;;;;;;7.43;1.80;;;;;;;;;;10366937;28;20286;-61
2022/12/24 13:18:55;;;;;;;5.77;2.00;;;;;;;;;;10403255;28;20698;-61
2022/12/24 13:24:06;;;;;;;8.97;2.27;;;;;;;;;;10425678;28;20276;-62
2022/12/24 13:29:28;;;;;;;8.70;1.90;;;;;;;;;;10422498;28;20709;-59
2022/12/24 13:34:34;;;;;;;5.03;2.13;;;;;;;;;;10443958;28;20581;-60
2022/12/24 13:39:53;;;;;;;5.00;2.30;;;;;;;;;;10427648;28;20376;-61
2022/12/24 13:45:13;;;;;;;3.07;1.50;;;;;;;;;;10365628;28;20326;-59
2022/12/24 13:50:34;;;;;;;7.50;2.07;;;;;;;;;;10365771;28;20197;-60
2022/12/24 13:55:35;;;;;;;7.13;2.60;;;;;;;;;;10363730;28;20225;-61
2022/12/24 14:00:38;;;;;;;7.10;2.30;;;;;;;;;;10365248;28;20263;-60
2022/12/24 14:05:45;;;;;;;5.47;2.20;;;;;;;;;;10365658;28;20464;-55
2022/12/24 14:10:58;;;;;;;10.33;2.80;;;;;;;;;;10365653;28;20280;-61
2022/12/24 14:16:00;;;;;;;5.13;2.90;;;;;;;;;;10365950;28;20598;-61
2022/12/24 14:21:01;;;;;;;4.77;2.50;;;;;;;;;;10365244;28;20267;-62
2022/12/24 14:26:02;;;;;;;5.50;2.43;;;;;;;;;;10365681;28;20268;-62
2022/12/24 14:31:03;;;;;;;15.63;4.53;;;;;;;;;;10365586;28;20228;-61
2022/12/24 14:36:04;;;;;;;7.47;3.20;;;;;;;;;;10364766;28;20243;-61
2022/12/24 14:41:07;;;;;;;27.13;12.13;;;;;;;;;;10365775;28;20545;-60
2022/12/24 14:46:21;;;;;;;13.53;5.73;;;;;;;;;;10365216;28;20225;-61
2022/12/24 14:51:21;;;;;;;9.13;3.37;;;;;;;;;;10365467;28;20280;-62
2022/12/24 14:56:21;;;;;;;7.53;2.53;;;;;;;;;;10364612;28;20251;-61
2022/12/24 15:01:23;;;;;;;9.23;1.70;;;;;;;;;;10365409;28;20193;-61
2022/12/24 15:06:24;;;;;;;9.83;2.67;;;;;;;;;;10364017;28;20205;-61
2022/12/24 15:11:24;;;;;;;8.77;1.70;;;;;;;;;;10369403;28;20211;-62
2022/12/24 15:16:26;;;;;;;10.07;2.50;;;;;;;;;;10371804;28;20221;-62
2022/12/24 15:21:32;;;;;;;7.83;2.67;;;;;;;;;;10372396;28;20715;-62
2022/12/24 15:26:35;;;;;;;9.87;3.03;;;;;;;;;;10371507;28;20214;-60
2022/12/24 15:31:35;;;;;;;7.50;2.47;;;;;;;;;;10372013;28;20204;-62
2022/12/24 15:36:36;;;;;;;6.47;2.70;;;;;;;;;;10371067;28;20225;-61
2022/12/24 15:42:12;;;;;;;8.23;3.80;;;;;;;;;;10371287;28;20526;-62
2022/12/24 15:46:59;;;;;;;6.67;3.10;;;;;;;;;;10371662;28;20221;-62
2022/12/24 15:52:14;;;;;;;8.57;2.50;;;;;;;;;;10371346;28;20197;-62
2022/12/24 15:57:21;;;;;;;13.27;4.20;;;;;;;;;;10370210;28;20925;-62
2022/12/24 16:02:25;;;;;;;13.27;4.90;;;;;;;;;;10370369;28;20664;-62
2022/12/24 16:08:05;;;;;;;13.23;5.30;;;;;;;;;;10370001;28;20726;-62
2022/12/24 16:12:46;;;;;;;34.80;15.40;;;;;;;;;;10370071;28;20292;-63
2022/12/24 16:17:47;;;;;;;13.63;6.37;;;;;;;;;;10369451;28;20239;-60
2022/12/24 16:22:48;;;;;;;11.10;3.87;;;;;;;;;;10369691;28;20225;-63
2022/12/24 16:27:49;;;;;;;14.97;4.63;;;;;;;;;;10369714;28;20658;-62
2022/12/24 16:32:50;;;;;;;12.83;4.77;;;;;;;;;;10368867;28;20667;-63
2022/12/24 16:37:50;;;;;;;8.97;4.97;;;;;;;;;;10368910;28;20243;-63
2022/12/24 16:48:12;;;;;;;11.47;3.90;;;;;;;;;;10368659;28;20292;-63
2022/12/24 16:53:14;;;;;;;17.20;5.37;;;;;;;;;;10368344;28;20207;-63
2022/12/24 16:58:15;;;;;;;9.93;4.37;;;;;;;;;;10368135;28;20228;-63
2022/12/24 17:03:15;;;;;;;11.97;3.77;;;;;;;;;;10367805;28;20192;-62
2022/12/24 17:08:15;;;;;;;18.03;8.23;;;;;;;;;;10367616;28;20209;-63
2022/12/24 17:13:15;;;;;;;8.60;2.47;;;;;;;;;;10367564;28;20953;-64
2022/12/24 17:18:16;;;;;;;8.73;2.30;;;;;;;;;;10367135;28;20209;-63
2022/12/24 17:23:16;;;;;;;8.87;2.60;;;;;;;;;;10368300;28;20208;-60
2022/12/24 17:28:16;;;;;;;13.83;3.13;;;;;;;;;;10366366;28;20687;-62
2022/12/24 17:33:16;;;;;;;10.30;2.83;;;;;;;;;;10366937;28;20557;-62
2022/12/24 17:38:17;;;;;;;14.83;3.90;;;;;;;;;;10366290;28;20241;-62
2022/12/24 17:43:17;;;;;;;11.00;4.13;;;;;;;;;;10366688;28;20269;-59
2022/12/24 17:48:17;;;;;;;22.40;7.20;;;;;;;;;;10366547;28;20779;-59
2022/12/24 17:53:17;;;;;;;33.07;14.70;;;;;;;;;;10366297;28;20893;-59
2022/12/24 17:58:18;;;;;;;25.40;10.17;;;;;;;;;;10366210;28;20193;-60
2022/12/24 18:03:18;;;;;;;23.93;10.43;;;;;;;;;;10366021;28;20192;-61
2022/12/24 18:08:18;;;;;;;26.83;12.00;;;;;;;;;;10365936;28;20216;-61
2022/12/24 18:13:18;;;;;;;12.40;4.53;;;;;;;;;;10365395;28;20690;-62
2022/12/24 18:18:18;;;;;;;9.60;3.93;;;;;;;;;;10365756;28;20213;-62
2022/12/24 18:23:19;;;;;;;9.20;3.90;;;;;;;;;;10365976;28;20432;-60
2022/12/24 18:28:19;;;;;;;11.63;3.47;;;;;;;;;;10365282;28;20209;-61
2022/12/24 18:33:19;;;;;;;14.10;4.40;;;;;;;;;;10365900;28;20189;-63
2022/12/24 18:38:19;;;;;;;9.97;4.13;;;;;;;;;;10365425;28;20665;-61
2022/12/24 18:43:19;;;;;;;13.97;4.20;;;;;;;;;;10367035;28;20295;-62
2022/12/24 18:48:19;;;;;;;7.15;3.35;;;;;;;;;;10373470;28;20224;-61
2022/12/24 18:53:20;;;;;;;17.97;7.43;;;;;;;;;;10373277;28;20625;-62
2022/12/24 18:58:20;;;;;;;29.13;11.37;;;;;;;;;;10372246;28;20217;-61
2022/12/24 19:03:20;;;;;;;17.53;5.87;;;;;;;;;;10373101;28;20272;-60
2022/12/24 19:08:20;;;;;;;9.13;3.00;;;;;;;;;;10371413;28;20205;-62
2022/12/24 19:13:20;;;;;;;12.27;3.90;;;;;;;;;;10371523;28;20321;-62
2022/12/24 19:18:20;;;;;;;13.60;4.53;;;;;;;;;;10370905;28;20629;-60
2022/12/24 19:23:21;;;;;;;17.67;4.40;;;;;;;;;;10370410;28;20174;-61
2022/12/24 19:28:21;;;;;;;13.43;6.43;;;;;;;;;;10370748;28;20205;-60
2022/12/24 19:33:21;;;;;;;9.90;2.90;;;;;;;;;;10370574;28;20767;-61
2022/12/24 19:38:21;;;;;;;7.00;2.87;;;;;;;;;;10369887;28;20295;-61
2022/12/24 19:43:21;;;;;;;9.67;3.20;;;;;;;;;;10370056;28;20177;-63
2022/12/24 19:48:21;;;;;;;9.93;2.70;;;;;;;;;;10369696;28;20688;-62
2022/12/24 19:53:22;;;;;;;8.43;2.87;;;;;;;;;;10369543;28;20189;-60
2022/12/24 19:58:22;;;;;;;10.27;3.03;;;;;;;;;;10368430;28;20213;-62
2022/12/24 20:03:22;;;;;;;12.33;3.37;;;;;;;;;;10369219;28;20301;-62
2022/12/24 20:08:22;;;;;;;9.17;2.60;;;;;;;;;;10368160;28;20221;-63
2022/12/24 20:13:22;;;;;;;7.53;3.07;;;;;;;;;;10368814;28;20185;-61
2022/12/24 20:18:23;;;;;;;8.77;2.67;;;;;;;;;;10366089;28;20217;-63
2022/12/24 20:23:23;;;;;;;10.27;2.77;;;;;;;;;;10367031;28;20494;-62
2022/12/24 20:28:23;;;;;;;7.43;2.63;;;;;;;;;;10367984;28;20220;-63
2022/12/24 20:33:24;;;;;;;10.40;2.53;;;;;;;;;;10368456;28;20259;-62
2022/12/24 20:38:24;;;;;;;9.23;3.03;;;;;;;;;;10367158;28;20247;-63
2022/12/24 20:43:25;;;;;;;11.13;2.67;;;;;;;;;;10367958;28;20193;-63
2022/12/24 20:48:25;;;;;;;10.13;2.30;;;;;;;;;;10367106;28;20579;-63
2022/12/24 20:53:25;;;;;;;9.27;2.13;;;;;;;;;;10366586;28;20193;-63
2022/12/24 20:58:25;;;;;;;8.23;2.50;;;;;;;;;;10368466;28;20201;-63
2022/12/24 21:03:25;;;;;;;10.30;2.47;;;;;;;;;;10367713;28;20190;-63
2022/12/24 21:08:26;;;;;;;14.87;3.10;;;;;;;;;;10366480;28;20233;-63
2022/12/24 21:13:26;;;;;;;8.27;2.70;;;;;;;;;;10367329;28;20576;-62
2022/12/24 21:18:26;;;;;;;8.70;3.30;;;;;;;;;;10367345;28;20296;-62
2022/12/24 21:23:26;;;;;;;12.73;3.20;;;;;;;;;;10367154;28;20189;-62
2022/12/24 21:28:27;;;;;;;11.33;2.93;;;;;;;;;;10367102;28;20208;-62
2022/12/24 21:33:27;;;;;;;10.47;2.97;;;;;;;;;;10367067;28;20213;-62
2022/12/24 21:38:27;;;;;;;9.90;3.70;;;;;;;;;;10366623;28;20676;-63
2022/12/24 21:43:31;;;;;;;15.40;4.43;;;;;;;;;;10367270;28;20185;-62
2022/12/24 21:59:09;;;;;;;8.30;2.97;;;;;;;;;;10396442;28;20208;-62
2022/12/24 22:04:09;;;;;;;13.27;3.40;;;;;;;;;;10406247;28;20562;-62
2022/12/24 22:14:28;;;;;;;9.60;2.97;;;;;;;;;;10406716;28;20255;-62
2022/12/24 22:19:29;;;;;;;10.70;3.30;;;;;;;;;;10413215;28;20208;-63
2022/12/24 22:24:29;;;;;;;12.30;3.43;;;;;;;;;;10420798;28;20231;-62
2022/12/24 22:29:29;;;;;;;11.47;3.10;;;;;;;;;;10420374;28;20188;-61
2022/12/24 22:34:30;;;;;;;15.73;3.13;;;;;;;;;;10421064;28;20228;-62
2022/12/24 22:39:30;;;;;;;10.63;3.60;;;;;;;;;;10419917;28;20211;-61
2022/12/24 22:44:30;;;;;;;11.00;3.37;;;;;;;;;;10420249;28;20275;-62
2022/12/24 22:49:31;;;;;;;23.73;3.73;;;;;;;;;;10419453;28;20280;-61
2022/12/24 22:54:31;;;;;;;9.63;3.30;;;;;;;;;;10419555;28;20212;-62
2022/12/24 22:59:32;;;;;;;11.23;3.80;;;;;;;;;;10419748;28;20538;-61
2022/12/24 23:04:36;;;;;;;12.57;3.67;;;;;;;;;;10418939;28;20216;-60
2022/12/24 23:09:36;;;;;;;17.13;3.37;;;;;;;;;;10420075;28;20623;-63
2022/12/24 23:14:55;;;;;;;8.10;2.70;;;;;;;;;;10419207;28;20220;-62
2022/12/24 23:19:55;;;;;;;11.17;2.80;;;;;;;;;;10420232;28;20188;-62
2022/12/24 23:24:55;;;;;;;17.87;5.10;;;;;;;;;;10418903;28;20208;-63
2022/12/24 23:29:55;;;;;;;15.63;3.30;;;;;;;;;;10416474;28;20195;-63
2022/12/24 23:34:56;;;;;;;11.07;3.40;;;;;;;;;;10411903;28;20240;-62
2022/12/24 23:39:56;;;;;;;13.03;3.47;;;;;;;;;;10412760;28;20204;-61
2022/12/24 23:44:56;;;;;;;12.97;3.23;;;;;;;;;;10411871;28;20347;-62
2022/12/24 23:49:56;;;;;;;13.17;3.23;;;;;;;;;;10394595;28;20185;-62
2022/12/24 23:54:56;;;;;;;15.67;4.23;;;;;;;;;;10411684;28;20217;-62
2022/12/24 23:59:56;;;;;;;12.17;3.77;;;;;;;;;;10411614;28;20706;-61
